createdAt,value
2018-05-14T00:00:05.607Z,53
2018-05-14T00:00:18.169Z,53
2018-05-14T00:00:30.605Z,53
2018-05-14T00:00:43.117Z,53
2018-05-14T00:00:55.557Z,53
2018-05-14T00:01:08.050Z,53
2018-05-14T00:01:20.568Z,53
2018-05-14T00:01:33.020Z,53
2018-05-14T00:01:45.423Z,53
2018-05-14T00:01:57.843Z,53
2018-05-14T00:02:10.249Z,53
2018-05-14T00:02:22.770Z,53
2018-05-14T00:02:35.224Z,53
2018-05-14T00:02:47.723Z,53
2018-05-14T00:03:00.147Z,53
2018-05-14T00:03:12.579Z,53
2018-05-14T00:03:24.999Z,53
2018-05-14T00:03:37.502Z,53
2018-05-14T00:03:50.524Z,53
2018-05-14T00:04:03.269Z,53
2018-05-14T00:04:15.696Z,53
2018-05-14T00:04:28.092Z,53
2018-05-14T00:04:40.514Z,53
2018-05-14T00:04:52.918Z,53
2018-05-14T00:05:05.342Z,53
2018-05-14T00:05:17.795Z,53
2018-05-14T00:05:30.212Z,53
2018-05-14T00:05:42.625Z,53
2018-05-14T00:05:55.043Z,53
2018-05-14T00:06:07.466Z,54
2018-05-14T00:06:19.891Z,54
2018-05-14T00:06:32.295Z,54
2018-05-14T00:06:44.780Z,54
2018-05-14T00:06:57.185Z,53
2018-05-14T00:07:09.640Z,53
2018-05-14T00:07:22.157Z,53
2018-05-14T00:07:34.563Z,53
2018-05-14T00:07:47.074Z,53
2018-05-14T00:07:59.550Z,53
2018-05-14T00:08:11.984Z,53
2018-05-14T00:08:24.389Z,53
2018-05-14T00:08:36.799Z,53
2018-05-14T00:08:49.204Z,53
2018-05-14T00:09:01.606Z,53
2018-05-14T00:09:14.107Z,53
2018-05-14T00:09:26.662Z,53
2018-05-14T00:09:39.082Z,53
2018-05-14T00:09:51.507Z,53
2018-05-14T00:10:03.970Z,53
2018-05-14T00:10:16.397Z,53
2018-05-14T00:10:28.812Z,53
2018-05-14T00:10:41.239Z,53
2018-05-14T00:10:53.654Z,53
2018-05-14T00:11:06.083Z,53
2018-05-14T00:11:18.487Z,54
2018-05-14T00:11:30.885Z,54
2018-05-14T00:11:43.501Z,54
2018-05-14T00:11:55.926Z,54
2018-05-14T00:12:08.351Z,53
2018-05-14T00:12:20.810Z,53
2018-05-14T00:12:33.227Z,53
2018-05-14T00:12:45.656Z,53
2018-05-14T00:12:58.077Z,54
2018-05-14T00:13:10.490Z,54
2018-05-14T00:13:22.903Z,54
2018-05-14T00:13:35.308Z,54
2018-05-14T00:13:47.729Z,54
2018-05-14T00:14:00.139Z,54
2018-05-14T00:14:12.574Z,54
2018-05-14T00:14:24.989Z,54
2018-05-14T00:14:37.479Z,54
2018-05-14T00:14:49.900Z,54
2018-05-14T00:15:02.393Z,54
2018-05-14T00:15:14.797Z,54
2018-05-14T00:15:27.262Z,54
2018-05-14T00:15:39.947Z,53
2018-05-14T00:15:52.368Z,53
2018-05-14T00:16:04.794Z,53
2018-05-14T00:16:17.307Z,53
2018-05-14T00:16:29.722Z,54
2018-05-14T00:16:42.138Z,54
2018-05-14T00:16:54.547Z,54
2018-05-14T00:17:06.953Z,54
2018-05-14T00:17:19.382Z,54
2018-05-14T00:17:31.874Z,54
2018-05-14T00:17:44.285Z,54
2018-05-14T00:17:56.840Z,54
2018-05-14T00:18:09.274Z,54
2018-05-14T00:18:21.903Z,54
2018-05-14T00:18:34.329Z,54
2018-05-14T00:18:46.759Z,54
2018-05-14T00:18:59.183Z,54
2018-05-14T00:19:11.667Z,54
2018-05-14T00:19:24.071Z,54
2018-05-14T00:19:36.477Z,54
2018-05-14T00:19:48.881Z,54
2018-05-14T00:20:01.297Z,54
2018-05-14T00:20:13.724Z,54
2018-05-14T00:20:26.153Z,54
2018-05-14T00:20:38.579Z,53
2018-05-14T00:20:50.989Z,53
2018-05-14T00:21:03.403Z,53
2018-05-14T00:21:15.839Z,53
2018-05-14T00:21:28.248Z,54
2018-05-14T00:21:40.696Z,54
2018-05-14T00:21:53.113Z,54
2018-05-14T00:22:05.633Z,54
2018-05-14T00:22:18.129Z,54
2018-05-14T00:22:30.554Z,54
2018-05-14T00:22:42.996Z,54
2018-05-14T00:22:55.421Z,54
2018-05-14T00:23:07.828Z,54
2018-05-14T00:23:20.254Z,54
2018-05-14T00:23:32.688Z,54
2018-05-14T00:23:45.118Z,54
2018-05-14T00:23:57.529Z,54
2018-05-14T00:24:10.025Z,54
2018-05-14T00:24:22.433Z,54
2018-05-14T00:24:34.835Z,54
2018-05-14T00:24:47.410Z,54
2018-05-14T00:24:59.825Z,54
2018-05-14T00:25:12.314Z,54
2018-05-14T00:25:24.738Z,54
2018-05-14T00:25:37.157Z,54
2018-05-14T00:25:49.553Z,54
2018-05-14T00:26:01.991Z,54
2018-05-14T00:26:14.407Z,54
2018-05-14T00:26:26.823Z,54
2018-05-14T00:26:39.240Z,54
2018-05-14T00:26:51.659Z,54
2018-05-14T00:27:04.082Z,54
2018-05-14T00:27:16.499Z,54
2018-05-14T00:27:28.917Z,54
2018-05-14T00:27:41.323Z,54
2018-05-14T00:27:53.729Z,54
2018-05-14T00:28:06.144Z,54
2018-05-14T00:28:18.559Z,54
2018-05-14T00:28:30.986Z,54
2018-05-14T00:28:43.408Z,54
2018-05-14T00:28:55.834Z,54
2018-05-14T00:29:08.248Z,54
2018-05-14T00:29:20.674Z,54
2018-05-14T00:29:33.082Z,54
2018-05-14T00:29:45.523Z,54
2018-05-14T00:29:57.935Z,54
2018-05-14T00:30:10.344Z,54
2018-05-14T00:30:22.757Z,54
2018-05-14T00:30:35.167Z,54
2018-05-14T00:30:47.569Z,54
2018-05-14T00:30:59.986Z,54
2018-05-14T00:31:12.411Z,54
2018-05-14T00:31:24.841Z,54
2018-05-14T00:31:37.238Z,54
2018-05-14T00:31:49.658Z,54
2018-05-14T00:32:02.132Z,54
2018-05-14T00:32:14.565Z,54
2018-05-14T00:32:26.982Z,54
2018-05-14T00:32:39.390Z,54
2018-05-14T00:32:51.889Z,54
2018-05-14T00:33:04.306Z,54
2018-05-14T00:33:16.757Z,54
2018-05-14T00:33:29.191Z,54
2018-05-14T00:33:41.595Z,54
2018-05-14T00:33:54.014Z,54
2018-05-14T00:34:06.419Z,54
2018-05-14T00:34:18.900Z,54
2018-05-14T00:34:31.396Z,54
2018-05-14T00:34:43.822Z,54
2018-05-14T00:34:56.288Z,54
2018-05-14T00:35:08.717Z,54
2018-05-14T00:35:21.229Z,54
2018-05-14T00:35:33.645Z,54
2018-05-14T00:35:46.188Z,54
2018-05-14T00:35:58.591Z,54
2018-05-14T00:36:11.008Z,54
2018-05-14T00:36:23.419Z,54
2018-05-14T00:36:35.829Z,54
2018-05-14T00:36:48.239Z,54
2018-05-14T00:37:00.725Z,54
2018-05-14T00:37:13.183Z,54
2018-05-14T00:37:25.666Z,54
2018-05-14T00:37:38.158Z,54
2018-05-14T00:37:50.563Z,54
2018-05-14T00:38:03.011Z,54
2018-05-14T00:38:15.423Z,54
2018-05-14T00:38:27.861Z,54
2018-05-14T00:38:40.276Z,54
2018-05-14T00:38:52.691Z,54
2018-05-14T00:39:05.103Z,54
2018-05-14T00:39:17.528Z,54
2018-05-14T00:39:29.968Z,54
2018-05-14T00:39:42.412Z,54
2018-05-14T00:39:54.830Z,54
2018-05-14T00:40:07.260Z,54
2018-05-14T00:40:19.671Z,55
2018-05-14T00:40:32.106Z,55
2018-05-14T00:40:44.554Z,55
2018-05-14T00:40:56.955Z,55
2018-05-14T00:41:09.350Z,55
2018-05-14T00:41:21.758Z,55
2018-05-14T00:41:34.190Z,55
2018-05-14T00:41:46.608Z,55
2018-05-14T00:41:59.007Z,54
2018-05-14T00:42:11.419Z,54
2018-05-14T00:42:23.830Z,54
2018-05-14T00:42:36.263Z,54
2018-05-14T00:42:48.659Z,54
2018-05-14T00:43:01.051Z,54
2018-05-14T00:43:13.473Z,54
2018-05-14T00:43:25.936Z,54
2018-05-14T00:43:38.349Z,55
2018-05-14T00:43:50.787Z,55
2018-05-14T00:44:03.198Z,55
2018-05-14T00:44:15.617Z,55
2018-05-14T00:44:28.036Z,55
2018-05-14T00:44:40.503Z,54
2018-05-14T00:44:52.917Z,54
2018-05-14T00:45:05.424Z,54
2018-05-14T00:45:17.840Z,54
2018-05-14T00:45:30.241Z,55
2018-05-14T00:45:42.665Z,55
2018-05-14T00:45:55.079Z,55
2018-05-14T00:46:07.487Z,55
2018-05-14T00:46:19.906Z,54
2018-05-14T00:46:32.312Z,54
2018-05-14T00:46:44.714Z,54
2018-05-14T00:46:57.225Z,54
2018-05-14T00:47:09.680Z,55
2018-05-14T00:47:22.079Z,55
2018-05-14T00:47:35.027Z,55
2018-05-14T00:47:47.423Z,55
2018-05-14T00:47:59.832Z,54
2018-05-14T00:48:12.236Z,54
2018-05-14T00:48:24.739Z,54
2018-05-14T00:48:37.142Z,54
2018-05-14T00:48:49.565Z,55
2018-05-14T00:49:01.992Z,55
2018-05-14T00:49:14.403Z,55
2018-05-14T00:49:27.400Z,55
2018-05-14T00:49:40.579Z,54
2018-05-14T00:49:52.974Z,54
2018-05-14T00:50:05.386Z,54
2018-05-14T00:50:17.779Z,54
2018-05-14T00:50:30.188Z,54
2018-05-14T00:50:42.608Z,54
2018-05-14T00:50:55.137Z,54
2018-05-14T00:51:07.556Z,54
2018-05-14T00:51:19.981Z,54
2018-05-14T00:51:32.383Z,54
2018-05-14T00:51:44.806Z,54
2018-05-14T00:51:57.214Z,54
2018-05-14T00:52:09.664Z,54
2018-05-14T00:52:22.071Z,54
2018-05-14T00:52:34.484Z,54
2018-05-14T00:52:46.913Z,54
2018-05-14T00:52:59.358Z,54
2018-05-14T00:53:11.761Z,54
2018-05-14T00:53:24.168Z,54
2018-05-14T00:53:36.603Z,54
2018-05-14T00:53:49.020Z,54
2018-05-14T00:54:01.512Z,55
2018-05-14T00:54:13.906Z,55
2018-05-14T00:54:26.414Z,55
2018-05-14T00:54:38.815Z,55
2018-05-14T00:54:51.223Z,55
2018-05-14T00:55:03.650Z,55
2018-05-14T00:55:16.052Z,55
2018-05-14T00:55:28.464Z,55
2018-05-14T00:55:40.860Z,55
2018-05-14T00:55:53.290Z,55
2018-05-14T00:56:05.724Z,55
2018-05-14T00:56:18.141Z,55
2018-05-14T00:56:30.552Z,55
2018-05-14T00:56:42.988Z,55
2018-05-14T00:56:55.416Z,55
2018-05-14T00:57:07.874Z,55
2018-05-14T00:57:20.277Z,55
2018-05-14T00:57:32.688Z,55
2018-05-14T00:57:45.198Z,55
2018-05-14T00:57:57.603Z,55
2018-05-14T00:58:10.017Z,55
2018-05-14T00:58:22.436Z,55
2018-05-14T00:58:34.923Z,55
2018-05-14T00:58:47.313Z,55
2018-05-14T00:58:59.712Z,55
2018-05-14T00:59:12.138Z,55
2018-05-14T00:59:24.545Z,55
2018-05-14T00:59:36.949Z,55
2018-05-14T00:59:49.359Z,55
2018-05-14T01:00:01.787Z,55
2018-05-14T01:00:14.404Z,55
2018-05-14T01:00:26.843Z,55
2018-05-14T01:00:39.293Z,55
2018-05-14T01:00:51.737Z,55
2018-05-14T01:01:04.178Z,55
2018-05-14T01:01:16.618Z,55
2018-05-14T01:01:29.029Z,55
2018-05-14T01:01:41.447Z,55
2018-05-14T01:01:53.868Z,55
2018-05-14T01:02:06.288Z,55
2018-05-14T01:02:18.729Z,55
2018-05-14T01:02:31.153Z,55
2018-05-14T01:02:43.577Z,55
2018-05-14T01:02:56.036Z,55
2018-05-14T01:03:08.466Z,55
2018-05-14T01:03:20.908Z,55
2018-05-14T01:03:33.314Z,55
2018-05-14T01:03:45.740Z,55
2018-05-14T01:03:58.176Z,55
2018-05-14T01:04:10.598Z,55
2018-05-14T01:04:23.110Z,55
2018-05-14T01:04:35.550Z,55
2018-05-14T01:04:47.965Z,55
2018-05-14T01:05:00.487Z,55
2018-05-14T01:05:12.912Z,55
2018-05-14T01:05:25.311Z,55
2018-05-14T01:05:37.749Z,55
2018-05-14T01:05:50.158Z,55
2018-05-14T01:06:02.648Z,55
2018-05-14T01:06:15.048Z,55
2018-05-14T01:06:27.711Z,55
2018-05-14T01:06:41.189Z,55
2018-05-14T01:06:53.616Z,55
2018-05-14T01:07:06.021Z,55
2018-05-14T01:07:18.530Z,55
2018-05-14T01:07:30.946Z,55
2018-05-14T01:07:43.353Z,55
2018-05-14T01:07:55.758Z,55
2018-05-14T01:08:08.149Z,55
2018-05-14T01:08:20.569Z,55
2018-05-14T01:08:33.059Z,55
2018-05-14T01:08:45.575Z,55
2018-05-14T01:08:57.981Z,55
2018-05-14T01:09:10.416Z,55
2018-05-14T01:09:22.823Z,55
2018-05-14T01:09:35.245Z,55
2018-05-14T01:09:47.660Z,55
2018-05-14T01:10:00.079Z,55
2018-05-14T01:10:12.504Z,55
2018-05-14T01:10:24.918Z,55
2018-05-14T01:10:37.318Z,55
2018-05-14T01:10:49.712Z,55
2018-05-14T01:11:02.148Z,55
2018-05-14T01:11:14.557Z,55
2018-05-14T01:11:26.963Z,55
2018-05-14T01:11:39.594Z,55
2018-05-14T01:11:52.010Z,55
2018-05-14T01:12:04.414Z,55
2018-05-14T01:12:16.817Z,55
2018-05-14T01:12:29.225Z,55
2018-05-14T01:12:41.631Z,55
2018-05-14T01:12:54.125Z,55
2018-05-14T01:13:06.541Z,55
2018-05-14T01:13:18.949Z,55
2018-05-14T01:13:31.349Z,55
2018-05-14T01:13:43.764Z,55
2018-05-14T01:13:56.171Z,55
2018-05-14T01:14:08.585Z,55
2018-05-14T01:14:20.992Z,55
2018-05-14T01:14:33.396Z,55
2018-05-14T01:14:45.798Z,55
2018-05-14T01:14:58.209Z,55
2018-05-14T01:15:10.625Z,55
2018-05-14T01:15:23.061Z,55
2018-05-14T01:15:35.536Z,55
2018-05-14T01:15:47.950Z,55
2018-05-14T01:16:00.370Z,55
2018-05-14T01:16:12.772Z,55
2018-05-14T01:16:25.176Z,55
2018-05-14T01:16:37.587Z,55
2018-05-14T01:16:49.990Z,55
2018-05-14T01:17:02.394Z,55
2018-05-14T01:17:14.811Z,55
2018-05-14T01:17:27.201Z,55
2018-05-14T01:17:39.712Z,55
2018-05-14T01:17:52.113Z,55
2018-05-14T01:18:04.519Z,55
2018-05-14T01:18:17.038Z,55
2018-05-14T01:18:29.461Z,55
2018-05-14T01:18:41.866Z,55
2018-05-14T01:18:54.383Z,55
2018-05-14T01:19:06.783Z,55
2018-05-14T01:19:19.189Z,55
2018-05-14T01:19:31.591Z,55
2018-05-14T01:19:44.001Z,55
2018-05-14T01:19:56.405Z,55
2018-05-14T01:20:08.822Z,55
2018-05-14T01:20:21.227Z,55
2018-05-14T01:20:33.645Z,55
2018-05-14T01:20:46.047Z,55
2018-05-14T01:20:58.453Z,55
2018-05-14T01:21:10.843Z,55
2018-05-14T01:21:23.241Z,55
2018-05-14T01:21:35.636Z,55
2018-05-14T01:21:48.027Z,55
2018-05-14T01:22:00.416Z,55
2018-05-14T01:22:12.812Z,55
2018-05-14T01:22:25.222Z,55
2018-05-14T01:22:37.637Z,55
2018-05-14T01:22:50.044Z,55
2018-05-14T01:23:02.471Z,55
2018-05-14T01:23:14.895Z,55
2018-05-14T01:23:27.429Z,55
2018-05-14T01:23:39.910Z,55
2018-05-14T01:23:52.322Z,55
2018-05-14T01:24:04.792Z,55
2018-05-14T01:24:17.203Z,55
2018-05-14T01:24:29.609Z,55
2018-05-14T01:24:42.021Z,55
2018-05-14T01:24:54.568Z,55
2018-05-14T01:25:06.960Z,55
2018-05-14T01:25:19.374Z,55
2018-05-14T01:25:31.777Z,55
2018-05-14T01:25:44.180Z,55
2018-05-14T01:25:56.591Z,55
2018-05-14T01:26:09.000Z,55
2018-05-14T01:26:21.434Z,55
2018-05-14T01:26:33.845Z,55
2018-05-14T01:26:46.276Z,55
2018-05-14T01:26:58.680Z,55
2018-05-14T01:27:11.085Z,55
2018-05-14T01:27:23.533Z,55
2018-05-14T01:27:35.928Z,55
2018-05-14T01:27:48.331Z,55
2018-05-14T01:28:00.778Z,55
2018-05-14T01:28:14.162Z,56
2018-05-14T01:28:26.810Z,56
2018-05-14T01:28:39.229Z,56
2018-05-14T01:28:51.634Z,56
2018-05-14T01:29:04.064Z,56
2018-05-14T01:29:16.486Z,56
2018-05-14T01:29:28.911Z,56
2018-05-14T01:29:41.319Z,56
2018-05-14T01:29:53.768Z,56
2018-05-14T01:30:06.209Z,56
2018-05-14T01:30:18.630Z,56
2018-05-14T01:30:31.033Z,56
2018-05-14T01:30:43.439Z,56
2018-05-14T01:30:55.845Z,56
2018-05-14T01:31:08.247Z,56
2018-05-14T01:31:20.645Z,56
2018-05-14T01:31:33.062Z,56
2018-05-14T01:31:45.556Z,56
2018-05-14T01:31:57.952Z,56
2018-05-14T01:32:10.372Z,56
2018-05-14T01:32:22.798Z,56
2018-05-14T01:32:35.214Z,56
2018-05-14T01:32:47.623Z,56
2018-05-14T01:33:00.039Z,56
2018-05-14T01:33:12.452Z,56
2018-05-14T01:33:24.873Z,56
2018-05-14T01:33:37.285Z,56
2018-05-14T01:33:49.720Z,56
2018-05-14T01:34:02.130Z,56
2018-05-14T01:34:14.538Z,56
2018-05-14T01:34:26.971Z,56
2018-05-14T01:34:39.388Z,56
2018-05-14T01:34:51.861Z,56
2018-05-14T01:35:04.283Z,56
2018-05-14T01:35:16.690Z,56
2018-05-14T01:35:29.098Z,56
2018-05-14T01:35:41.504Z,56
2018-05-14T01:35:54.012Z,56
2018-05-14T01:36:06.436Z,56
2018-05-14T01:36:18.847Z,56
2018-05-14T01:36:31.265Z,56
2018-05-14T01:36:43.680Z,56
2018-05-14T01:36:56.094Z,56
2018-05-14T01:37:08.522Z,56
2018-05-14T01:37:20.939Z,56
2018-05-14T01:37:33.358Z,56
2018-05-14T01:37:45.766Z,56
2018-05-14T01:37:58.310Z,56
2018-05-14T01:38:10.712Z,56
2018-05-14T01:38:23.126Z,56
2018-05-14T01:38:35.585Z,56
2018-05-14T01:38:47.982Z,56
2018-05-14T01:39:00.392Z,56
2018-05-14T01:39:12.791Z,56
2018-05-14T01:39:25.212Z,56
2018-05-14T01:39:37.618Z,56
2018-05-14T01:39:50.035Z,56
2018-05-14T01:40:02.454Z,56
2018-05-14T01:40:14.858Z,56
2018-05-14T01:40:27.287Z,56
2018-05-14T01:40:39.723Z,56
2018-05-14T01:40:52.149Z,56
2018-05-14T01:41:04.559Z,56
2018-05-14T01:41:16.989Z,56
2018-05-14T01:41:29.476Z,56
2018-05-14T01:41:41.882Z,56
2018-05-14T01:41:54.290Z,56
2018-05-14T01:42:06.702Z,56
2018-05-14T01:42:19.131Z,56
2018-05-14T01:42:31.534Z,56
2018-05-14T01:42:43.950Z,56
2018-05-14T01:42:56.394Z,56
2018-05-14T01:43:08.821Z,56
2018-05-14T01:43:21.238Z,56
2018-05-14T01:43:33.652Z,56
2018-05-14T01:43:46.064Z,56
2018-05-14T01:43:58.459Z,56
2018-05-14T01:44:10.876Z,56
2018-05-14T01:44:23.281Z,56
2018-05-14T01:44:35.691Z,56
2018-05-14T01:44:48.122Z,56
2018-05-14T01:45:00.543Z,56
2018-05-14T01:45:12.949Z,56
2018-05-14T01:45:25.353Z,56
2018-05-14T01:45:37.764Z,56
2018-05-14T01:45:50.171Z,56
2018-05-14T01:46:02.575Z,56
2018-05-14T01:46:14.969Z,56
2018-05-14T01:46:27.367Z,56
2018-05-14T01:46:39.782Z,56
2018-05-14T01:46:52.196Z,56
2018-05-14T01:47:04.615Z,56
2018-05-14T01:47:17.028Z,56
2018-05-14T01:47:29.439Z,56
2018-05-14T01:47:41.845Z,56
2018-05-14T01:47:54.322Z,56
2018-05-14T01:48:06.722Z,56
2018-05-14T01:48:19.234Z,56
2018-05-14T01:48:31.651Z,56
2018-05-14T01:48:44.054Z,56
2018-05-14T01:48:56.467Z,56
2018-05-14T01:49:08.872Z,56
2018-05-14T01:49:21.278Z,56
2018-05-14T01:49:33.714Z,56
2018-05-14T01:49:46.143Z,56
2018-05-14T01:49:58.634Z,56
2018-05-14T01:50:11.057Z,56
2018-05-14T01:50:23.480Z,56
2018-05-14T01:50:35.916Z,56
2018-05-14T01:50:48.333Z,56
2018-05-14T01:51:05.966Z,56
2018-05-14T01:51:18.394Z,56
2018-05-14T01:51:30.790Z,56
2018-05-14T01:51:43.195Z,56
2018-05-14T01:51:55.611Z,56
2018-05-14T01:52:08.031Z,56
2018-05-14T01:52:20.439Z,56
2018-05-14T01:52:32.836Z,56
2018-05-14T01:52:45.256Z,56
2018-05-14T01:52:57.670Z,56
2018-05-14T01:53:10.083Z,56
2018-05-14T01:53:22.498Z,56
2018-05-14T01:53:34.922Z,56
2018-05-14T01:53:47.332Z,56
2018-05-14T01:53:59.745Z,56
2018-05-14T01:54:12.437Z,56
2018-05-14T01:54:24.856Z,56
2018-05-14T01:54:37.275Z,56
2018-05-14T01:54:49.767Z,56
2018-05-14T01:55:02.200Z,56
2018-05-14T01:55:14.708Z,56
2018-05-14T01:55:27.112Z,56
2018-05-14T01:55:39.525Z,56
2018-05-14T01:55:51.936Z,56
2018-05-14T01:56:04.369Z,56
2018-05-14T01:56:16.783Z,56
2018-05-14T01:56:29.217Z,56
2018-05-14T01:56:41.655Z,56
2018-05-14T01:56:54.061Z,56
2018-05-14T01:57:06.482Z,57
2018-05-14T01:57:18.901Z,57
2018-05-14T01:57:31.435Z,57
2018-05-14T01:57:43.864Z,57
2018-05-14T01:57:56.342Z,57
2018-05-14T01:58:08.754Z,57
2018-05-14T01:58:21.191Z,57
2018-05-14T01:58:33.603Z,57
2018-05-14T01:58:46.018Z,57
2018-05-14T01:58:58.443Z,56
2018-05-14T01:59:10.919Z,56
2018-05-14T01:59:23.343Z,56
2018-05-14T01:59:35.781Z,56
2018-05-14T01:59:48.201Z,56
2018-05-14T02:00:00.603Z,56
2018-05-14T02:00:13.226Z,56
2018-05-14T02:00:25.729Z,56
2018-05-14T02:00:38.267Z,57
2018-05-14T02:00:50.696Z,57
2018-05-14T02:01:03.219Z,57
2018-05-14T02:01:15.635Z,57
2018-05-14T02:01:28.089Z,57
2018-05-14T02:01:40.511Z,57
2018-05-14T02:01:52.919Z,57
2018-05-14T02:02:05.333Z,57
2018-05-14T02:02:17.741Z,57
2018-05-14T02:02:30.162Z,57
2018-05-14T02:02:42.579Z,57
2018-05-14T02:02:54.995Z,57
2018-05-14T02:03:07.419Z,56
2018-05-14T02:03:19.863Z,56
2018-05-14T02:03:32.313Z,56
2018-05-14T02:03:44.722Z,56
2018-05-14T02:03:57.119Z,56
2018-05-14T02:04:09.639Z,56
2018-05-14T02:04:22.043Z,56
2018-05-14T02:04:34.456Z,56
2018-05-14T02:04:46.890Z,56
2018-05-14T02:04:59.296Z,56
2018-05-14T02:05:11.723Z,56
2018-05-14T02:05:24.146Z,56
2018-05-14T02:05:36.576Z,56
2018-05-14T02:05:48.986Z,57
2018-05-14T02:06:01.397Z,57
2018-05-14T02:06:13.793Z,57
2018-05-14T02:06:26.227Z,57
2018-05-14T02:06:38.640Z,57
2018-05-14T02:06:51.288Z,57
2018-05-14T02:07:04.266Z,57
2018-05-14T02:07:16.684Z,57
2018-05-14T02:07:29.088Z,57
2018-05-14T02:07:41.502Z,57
2018-05-14T02:07:53.909Z,57
2018-05-14T02:08:06.310Z,57
2018-05-14T02:08:18.726Z,57
2018-05-14T02:08:31.182Z,57
2018-05-14T02:08:43.600Z,57
2018-05-14T02:08:56.009Z,57
2018-05-14T02:09:08.476Z,57
2018-05-14T02:09:20.901Z,57
2018-05-14T02:09:33.306Z,57
2018-05-14T02:09:45.733Z,57
2018-05-14T02:09:58.151Z,57
2018-05-14T02:10:10.641Z,57
2018-05-14T02:10:23.049Z,57
2018-05-14T02:10:35.464Z,57
2018-05-14T02:10:47.899Z,57
2018-05-14T02:11:00.330Z,57
2018-05-14T02:11:12.737Z,57
2018-05-14T02:11:25.160Z,57
2018-05-14T02:11:37.568Z,57
2018-05-14T02:11:50.078Z,57
2018-05-14T02:12:02.617Z,57
2018-05-14T02:12:15.026Z,57
2018-05-14T02:12:27.484Z,57
2018-05-14T02:12:39.885Z,57
2018-05-14T02:12:52.290Z,57
2018-05-14T02:13:04.796Z,57
2018-05-14T02:13:17.213Z,57
2018-05-14T02:13:29.623Z,57
2018-05-14T02:13:42.043Z,57
2018-05-14T02:13:54.456Z,57
2018-05-14T02:14:06.873Z,57
2018-05-14T02:14:19.284Z,57
2018-05-14T02:14:31.690Z,57
2018-05-14T02:14:44.131Z,57
2018-05-14T02:14:56.543Z,57
2018-05-14T02:15:08.960Z,57
2018-05-14T02:15:21.386Z,57
2018-05-14T02:15:33.938Z,57
2018-05-14T02:15:46.388Z,57
2018-05-14T02:15:58.804Z,57
2018-05-14T02:16:11.211Z,57
2018-05-14T02:16:23.636Z,57
2018-05-14T02:16:36.051Z,57
2018-05-14T02:16:48.471Z,57
2018-05-14T02:17:00.987Z,57
2018-05-14T02:17:13.389Z,57
2018-05-14T02:17:25.800Z,57
2018-05-14T02:17:38.198Z,57
2018-05-14T02:17:50.659Z,57
2018-05-14T02:18:03.063Z,57
2018-05-14T02:18:15.670Z,57
2018-05-14T02:18:28.064Z,57
2018-05-14T02:18:40.476Z,57
2018-05-14T02:18:52.988Z,57
2018-05-14T02:19:05.403Z,57
2018-05-14T02:19:17.812Z,57
2018-05-14T02:19:30.230Z,57
2018-05-14T02:19:42.639Z,57
2018-05-14T02:19:55.044Z,57
2018-05-14T02:20:07.453Z,57
2018-05-14T02:20:19.900Z,57
2018-05-14T02:20:32.306Z,57
2018-05-14T02:20:44.730Z,57
2018-05-14T02:20:57.139Z,57
2018-05-14T02:21:09.558Z,58
2018-05-14T02:21:21.970Z,58
2018-05-14T02:21:34.394Z,58
2018-05-14T02:21:46.805Z,58
2018-05-14T02:21:59.216Z,58
2018-05-14T02:22:11.633Z,58
2018-05-14T02:22:24.045Z,58
2018-05-14T02:22:36.459Z,58
2018-05-14T02:22:48.856Z,58
2018-05-14T02:23:01.262Z,58
2018-05-14T02:23:13.678Z,58
2018-05-14T02:23:26.109Z,58
2018-05-14T02:23:38.514Z,58
2018-05-14T02:23:50.925Z,58
2018-05-14T02:24:03.332Z,58
2018-05-14T02:24:15.757Z,58
2018-05-14T02:24:28.251Z,58
2018-05-14T02:24:40.648Z,58
2018-05-14T02:24:53.265Z,58
2018-05-14T02:25:05.761Z,58
2018-05-14T02:25:18.172Z,58
2018-05-14T02:25:30.670Z,58
2018-05-14T02:25:43.156Z,58
2018-05-14T02:25:55.558Z,58
2018-05-14T02:26:07.982Z,58
2018-05-14T02:26:20.401Z,58
2018-05-14T02:26:32.849Z,58
2018-05-14T02:26:45.260Z,58
2018-05-14T02:26:57.669Z,58
2018-05-14T02:27:10.163Z,58
2018-05-14T02:27:22.583Z,58
2018-05-14T02:27:34.981Z,58
2018-05-14T02:27:47.457Z,58
2018-05-14T02:27:59.878Z,58
2018-05-14T02:28:12.292Z,58
2018-05-14T02:28:24.693Z,58
2018-05-14T02:28:37.092Z,58
2018-05-14T02:28:49.493Z,58
2018-05-14T02:29:01.919Z,58
2018-05-14T02:29:14.387Z,58
2018-05-14T02:29:27.908Z,58
2018-05-14T02:29:40.422Z,58
2018-05-14T02:29:52.887Z,58
2018-05-14T02:30:05.332Z,58
2018-05-14T02:30:17.770Z,58
2018-05-14T02:30:30.199Z,58
2018-05-14T02:30:42.647Z,58
2018-05-14T02:30:55.067Z,58
2018-05-14T02:31:07.527Z,58
2018-05-14T02:31:19.940Z,58
2018-05-14T02:31:32.366Z,58
2018-05-14T02:31:44.801Z,58
2018-05-14T02:31:57.224Z,58
2018-05-14T02:32:09.658Z,58
2018-05-14T02:32:22.069Z,58
2018-05-14T02:32:34.555Z,58
2018-05-14T02:32:47.058Z,58
2018-05-14T02:32:59.481Z,58
2018-05-14T02:33:11.921Z,58
2018-05-14T02:33:24.347Z,58
2018-05-14T02:33:36.825Z,58
2018-05-14T02:33:49.243Z,58
2018-05-14T02:34:01.695Z,58
2018-05-14T02:34:14.134Z,58
2018-05-14T02:34:26.644Z,58
2018-05-14T02:34:39.071Z,58
2018-05-14T02:34:51.535Z,58
2018-05-14T02:35:03.986Z,58
2018-05-14T02:35:16.444Z,58
2018-05-14T02:35:28.872Z,58
2018-05-14T02:35:41.292Z,58
2018-05-14T02:35:53.812Z,58
2018-05-14T02:36:06.323Z,58
2018-05-14T02:36:18.755Z,58
2018-05-14T02:36:31.180Z,58
2018-05-14T02:36:43.622Z,58
2018-05-14T02:36:56.055Z,58
2018-05-14T02:37:08.505Z,58
2018-05-14T02:37:20.922Z,58
2018-05-14T02:37:33.368Z,58
2018-05-14T02:37:45.785Z,58
2018-05-14T02:37:58.191Z,58
2018-05-14T02:38:10.648Z,58
2018-05-14T02:38:23.071Z,58
2018-05-14T02:38:35.482Z,58
2018-05-14T02:38:48.010Z,58
2018-05-14T02:39:00.539Z,58
2018-05-14T02:39:13.002Z,58
2018-05-14T02:39:25.428Z,58
2018-05-14T02:39:37.959Z,58
2018-05-14T02:39:50.386Z,58
2018-05-14T02:40:02.818Z,58
2018-05-14T02:40:15.278Z,58
2018-05-14T02:40:27.687Z,58
2018-05-14T02:40:40.146Z,58
2018-05-14T02:40:52.580Z,58
2018-05-14T02:41:05.054Z,58
2018-05-14T02:41:17.488Z,58
2018-05-14T02:41:29.916Z,58
2018-05-14T02:41:42.336Z,59
2018-05-14T02:41:54.844Z,59
2018-05-14T02:42:07.311Z,59
2018-05-14T02:42:19.756Z,59
2018-05-14T02:42:32.188Z,59
2018-05-14T02:42:44.623Z,59
2018-05-14T02:42:57.041Z,59
2018-05-14T02:43:09.487Z,59
2018-05-14T02:43:21.914Z,59
2018-05-14T02:43:34.338Z,59
2018-05-14T02:43:46.762Z,59
2018-05-14T02:43:59.192Z,59
2018-05-14T02:44:11.647Z,59
2018-05-14T02:44:24.071Z,59
2018-05-14T02:44:36.520Z,59
2018-05-14T02:44:48.973Z,59
2018-05-14T02:45:01.423Z,59
2018-05-14T02:45:13.862Z,59
2018-05-14T02:45:26.315Z,59
2018-05-14T02:45:38.767Z,59
2018-05-14T02:45:51.230Z,59
2018-05-14T02:46:03.711Z,59
2018-05-14T02:46:16.132Z,59
2018-05-14T02:46:28.572Z,59
2018-05-14T02:46:41.006Z,59
2018-05-14T02:46:53.452Z,59
2018-05-14T02:47:05.892Z,59
2018-05-14T02:47:18.326Z,59
2018-05-14T02:47:30.763Z,59
2018-05-14T02:47:43.206Z,59
2018-05-14T02:47:55.623Z,59
2018-05-14T02:48:08.052Z,59
2018-05-14T02:48:20.618Z,59
2018-05-14T02:48:33.034Z,59
2018-05-14T02:48:45.523Z,59
2018-05-14T02:48:57.943Z,59
2018-05-14T02:49:10.429Z,59
2018-05-14T02:49:22.844Z,59
2018-05-14T02:49:35.440Z,59
2018-05-14T02:49:47.868Z,59
2018-05-14T02:50:00.327Z,59
2018-05-14T02:50:12.776Z,60
2018-05-14T02:50:25.212Z,60
2018-05-14T02:50:37.650Z,60
2018-05-14T02:50:50.067Z,60
2018-05-14T02:51:02.665Z,60
2018-05-14T02:51:15.217Z,60
2018-05-14T02:51:27.648Z,60
2018-05-14T02:51:40.089Z,60
2018-05-14T02:51:52.526Z,60
2018-05-14T02:52:05.043Z,60
2018-05-14T02:52:17.511Z,60
2018-05-14T02:52:29.956Z,60
2018-05-14T02:52:42.395Z,60
2018-05-14T02:52:54.965Z,60
2018-05-14T02:53:07.379Z,60
2018-05-14T02:53:19.827Z,60
2018-05-14T02:53:32.254Z,60
2018-05-14T02:53:44.685Z,60
2018-05-14T02:53:57.104Z,60
2018-05-14T02:54:09.681Z,60
2018-05-14T02:54:22.131Z,60
2018-05-14T02:54:34.566Z,60
2018-05-14T02:54:46.998Z,60
2018-05-14T02:54:59.414Z,60
2018-05-14T02:55:11.843Z,60
2018-05-14T02:55:24.299Z,60
2018-05-14T02:55:36.756Z,60
2018-05-14T02:55:49.194Z,60
2018-05-14T02:56:01.634Z,60
2018-05-14T02:56:14.069Z,60
2018-05-14T02:56:26.505Z,60
2018-05-14T02:56:39.020Z,60
2018-05-14T02:56:51.448Z,60
2018-05-14T02:57:03.894Z,60
2018-05-14T02:57:16.319Z,60
2018-05-14T02:57:28.757Z,60